X  Sluiten METAR luchtvaart weer gegevens      EHAM Amsterdam Airport Schiphol
Temperatuur
5°C Temperatuur
4°C Dauwpunt
93% Vochtigheid



Wind
23 KM/U
14 MPH
6 M/S
12 KTS



210°
ZZW
Huidig weer

Veel verspreide wolken Veel verspreide wolken
Luchtdruk 1020.92 (hPa) - 30.15 (inHg)
Zicht 6.2 (mijl) - 10 (km)
Vliegveld
Vliegveld code EHAM

Locatie : Amsterdam Airport Schiphol
Afstand: 40 (km)

Metar:
EHAM 291525Z 21012KT 9999 SCT010 OVC012 05/04 Q1021 NOSIG

Tijd: 29-01-2023 16:25 CET